Portada
METAR-TAF:

METAR-TAF

Aeroports :

Salalah, Oman

latitud: 17-02N, longitud: 054-05E, altitud: 20 m

Observació

L'informe es va fer fa 1 hora i 17 minuts, a les 09:50 UTC
Vent 15 kt del Sud
Temperatura 32°C
Humitat 75%
Pressió 1002 hPa
Visibilitat: 9000 m
Núvols disperses a una alçada de 2500 ft

METAR: OOSA 230950Z 19015KT 9000 SCT025 32/27 Q1002 NOSIG

Hora: 15:07 (11:07 UTC)

Pronòstic

L'informe es va fer fa 5 hores i 27 minuts, a les 05:40 UTC
Pronòstic vàlid del 23 a les 06 UTC al 24 a les 12 UTC
Vent 15 kt del Sud
Visibilitat: 9000 m
Núvols disperses a una alçada de 1400 ft
Cel ennuvolat a una alçada de 2500 ft

TAF: OOSA 230540Z 2306/2412 19015KT 9000 SCT014 BKN025

Observacions i pronòstics meteorològics de més de 4000 aeroports (METAR i TAF).

Les estacions disponibles són els punts grocs i vermells al mapa.

Posi el ratolí al punt desitjat per veure el nom de l'estació.

Feu clic per veure les observacions i els pronòstics meteorològics.

Per canviar el mapa: feu clic els botons verds amb una creu de color negre per apropar; al botó verd amb un guió per allunyar la imatge; o en les fletxes verdes per a mapes adjacents.


METAR-TAF: